フィレンツェ の空港の天気 - METARとTAF

フィレンツェ・ペレトラ空港 ( LIRQ / FLR ) - イタリア フィレンツェ
飛行場実況気象(Metar)
観測時間05/27 09:50 CEST (05/27 07:50 UTC)
風向・風速不定 1m/s
視程10km以上
天気現象
なし
気温24℃
湿度65%
気圧1018hPa
METARLIRQ 270750Z VRB01KT CAVOK 24/17 Q1018
過去の天気等 Google飛行場航空写真 Wunderground天気予報

過去48時間のMETAR

飛行場予報(TAF)
発表時間: 5/27 07:00 CEST (5/27 05:00 UTC)
予報対象時間: 27日8時 CEST ~ 28日8時 CEST
風向・風速北東 4m/s
視程10km以上
全天の4割程度の雲 雲底高度 910m
TAF LIRQ 270500Z 2706/2806 04007KT 9999 SCT030